Terminal Aerodrome Forecast
Issued by NWS Sterling, VA

Current Version | Previous Version | Text Only | Print | Product List | Glossary Off
Versions: 1 2 3 4 5 6 7 8 9 10 11 12 13 14 15 16 17 18 19 20 21 22 23

000
FTUS41 KLWX 290500 RRA
TAFMRB
TAF
KMRB 290548Z 2906/3006 VRB03KT P6SM BKN200
     FM290900 00000KT 3SM BR BKN130
     FM291300 VRB03KT P6SM BKN130=

USA.gov is the U.S. government's official web portal to all federal, state and local government web resources and services.